Vlist, Netherlands
Current Conditions -  °F | °C
As of 2:55 PM on Friday 24 Oct 2014 (Local Time) from EHRD Reporting Station
Drizzle Drizzle  
Wind Chill: 54°   Ceiling: 900
Heat Index: 54°   Visibility: 2.1mi
Dew Point: 54°   Wind: 12mph
Humidity: 100%   Direction: 180°S
Pressure: 30"   Gusts: NA
Location:  51.98°N, 4.82°E
Report Text: EHRD 241255Z AUTO 18010KT 150V220 3500 DZ FEW005 SCT006 BKN00912/12 Q1016 TEMPO 6000 BKN012
Loading
Personal Weather Stations






























Interactive Weather Map
Tropical Storm Tracking
New forecast layout! Learn more

10-Day Weather Forecast

Advertisements
Track Severe Weather on mobile